Time;durP1;ratioP1;P1;durP2;ratioP2;P2;SDS_P1;SDS_P2;PMS_P1;PMS_P2;Temp;Humidity;BMP_temperature;BMP_pressure;BME280_temperature;BME280_humidity;BME280_pressure;Samples;Min_cycle;Max_cycle;Signal;HPM_P1;HPM_P2
2022/03/18 00:00:57;;;;;;;0.10;0.10;;;;;;;;;;4890317;29;20126;-92
2022/03/18 00:03:23;;;;;;;0.10;0.10;;;;;;;;;;4906285;29;20495;-92
2022/03/18 00:05:49;;;;;;;0.10;0.10;;;;;;;;;;4906447;29;20130;-92
2022/03/18 00:08:15;;;;;;;0.10;0.10;;;;;;;;;;4903750;29;20119;-92
2022/03/18 00:10:41;;;;;;;0.10;0.10;;;;;;;;;;4903750;29;20139;-92
2022/03/18 00:13:07;;;;;;;0.10;0.10;;;;;;;;;;4888236;29;20064;-92
2022/03/18 00:15:33;;;;;;;0.10;0.10;;;;;;;;;;4887660;29;20096;-92
2022/03/18 00:17:59;;;;;;;0.10;0.10;;;;;;;;;;4902824;29;20055;-94
2022/03/18 00:20:26;;;;;;;0.10;0.10;;;;;;;;;;4888505;29;20061;-93
2022/03/18 00:22:52;;;;;;;0.10;0.10;;;;;;;;;;4887818;29;20202;-93
2022/03/18 00:25:18;;;;;;;0.10;0.10;;;;;;;;;;4887804;29;20073;-93
2022/03/18 00:27:44;;;;;;;0.10;0.10;;;;;;;;;;4887765;29;20492;-93
2022/03/18 00:30:11;;;;;;;0.10;0.10;;;;;;;;;;4903261;29;20496;-93
2022/03/18 00:32:40;;;;;;;0.10;0.10;;;;;;;;;;4887631;29;20079;-92
2022/03/18 00:35:08;;;;;;;0.20;0.20;;;;;;;;;;4887941;29;20100;-93
2022/03/18 00:37:34;;;;;;;0.10;0.10;;;;;;;;;;4887641;29;20205;-94
2022/03/18 00:40:00;;;;;;;0.10;0.10;;;;;;;;;;4903088;29;20044;-92
2022/03/18 00:42:26;;;;;;;0.10;0.10;;;;;;;;;;4886180;29;20127;-92
2022/03/18 00:44:52;;;;;;;0.10;0.10;;;;;;;;;;4901978;29;20131;-92
2022/03/18 00:52:47;;;;;;;0.20;0.20;;;;;;;;;;4903929;29;20080;-92
2022/03/18 00:55:13;;;;;;;0.10;0.10;;;;;;;;;;4885952;29;20066;-92
2022/03/18 00:57:39;;;;;;;0.10;0.10;;;;;;;;;;4902129;29;20055;-92
2022/03/18 01:00:06;;;;;;;0.10;0.10;;;;;;;;;;4902405;29;20040;-92
2022/03/18 01:02:32;;;;;;;0.10;0.10;;;;;;;;;;4901349;29;20047;-93
2022/03/18 01:04:58;;;;;;;0.10;0.10;;;;;;;;;;4917359;29;20122;-93
2022/03/18 01:07:24;;;;;;;0.10;0.10;;;;;;;;;;4886109;29;20484;-92
2022/03/18 01:09:50;;;;;;;0.10;0.10;;;;;;;;;;4886088;29;20047;-94
2022/03/18 01:12:16;;;;;;;0.10;0.10;;;;;;;;;;4886580;29;20103;-94
2022/03/18 01:14:42;;;;;;;0.10;0.10;;;;;;;;;;4902417;29;20485;-93
2022/03/18 01:17:08;;;;;;;0.10;0.10;;;;;;;;;;4886472;29;20047;-93
2022/03/18 01:19:34;;;;;;;0.10;0.10;;;;;;;;;;4901771;29;20044;-92
2022/03/18 01:22:00;;;;;;;0.10;0.10;;;;;;;;;;4886445;29;20415;-94
2022/03/18 01:24:26;;;;;;;0.10;0.10;;;;;;;;;;4885992;29;20051;-92
2022/03/18 01:26:52;;;;;;;0.10;0.10;;;;;;;;;;4901711;29;20108;-93
2022/03/18 01:29:18;;;;;;;0.10;0.10;;;;;;;;;;4900744;29;20044;-93
2022/03/18 01:31:44;;;;;;;0.00;0.00;;;;;;;;;;4885938;29;20092;-93
2022/03/18 01:34:10;;;;;;;0.10;0.10;;;;;;;;;;4900950;29;20138;-93
2022/03/18 01:36:36;;;;;;;0.10;0.10;;;;;;;;;;4885669;29;20105;-93
2022/03/18 01:39:03;;;;;;;0.10;0.10;;;;;;;;;;4885842;29;20048;-93
2022/03/18 01:41:29;;;;;;;0.10;0.10;;;;;;;;;;4885839;29;20048;-93
2022/03/18 01:43:55;;;;;;;0.10;0.10;;;;;;;;;;4885489;29;20448;-92
2022/03/18 01:46:21;;;;;;;0.10;0.10;;;;;;;;;;4900875;29;20047;-92
2022/03/18 01:48:48;;;;;;;0.10;0.10;;;;;;;;;;4885264;29;20043;-92
2022/03/18 01:51:16;;;;;;;0.10;0.10;;;;;;;;;;4885181;29;20039;-92
2022/03/18 01:53:43;;;;;;;0.10;0.10;;;;;;;;;;4901059;29;20032;-91
2022/03/18 01:56:09;;;;;;;0.10;0.10;;;;;;;;;;4885238;29;20139;-92
2022/03/18 01:58:35;;;;;;;0.10;0.10;;;;;;;;;;4885816;29;20087;-92
2022/03/18 02:01:01;;;;;;;0.10;0.10;;;;;;;;;;4885431;29;20060;-92
2022/03/18 02:03:27;;;;;;;0.10;0.10;;;;;;;;;;4885437;29;20040;-92
2022/03/18 02:05:53;;;;;;;0.10;0.10;;;;;;;;;;4885292;29;20052;-92
2022/03/18 02:08:20;;;;;;;0.10;0.10;;;;;;;;;;4885102;29;20052;-92
2022/03/18 02:10:46;;;;;;;0.10;0.10;;;;;;;;;;4900952;29;20047;-92
2022/03/18 02:13:12;;;;;;;0.10;0.10;;;;;;;;;;4884682;29;20452;-92
2022/03/18 02:15:38;;;;;;;0.10;0.10;;;;;;;;;;4885277;29;20040;-92
2022/03/18 02:18:05;;;;;;;0.10;0.10;;;;;;;;;;4916675;29;20039;-92
2022/03/18 02:20:31;;;;;;;0.25;0.25;;;;;;;;;;4900775;29;20044;-92
2022/03/18 02:22:57;;;;;;;0.10;0.10;;;;;;;;;;4916281;29;20089;-92
2022/03/18 02:25:23;;;;;;;0.10;0.10;;;;;;;;;;4885445;29;20044;-92
2022/03/18 02:27:56;;;;;;;0.10;0.10;;;;;;;;;;4885639;29;20044;-93
2022/03/18 02:30:22;;;;;;;0.10;0.10;;;;;;;;;;4901162;29;20484;-92
2022/03/18 02:32:48;;;;;;;0.10;0.10;;;;;;;;;;4901753;29;20362;-93
2022/03/18 02:35:14;;;;;;;0.10;0.10;;;;;;;;;;4885195;29;20092;-93
2022/03/18 02:37:40;;;;;;;0.10;0.10;;;;;;;;;;4885641;29;20055;-93
2022/03/18 02:40:06;;;;;;;0.10;0.10;;;;;;;;;;4885796;29;20076;-93
2022/03/18 02:42:32;;;;;;;0.10;0.10;;;;;;;;;;4888846;29;20044;-93
2022/03/18 02:45:00;;;;;;;0.10;0.10;;;;;;;;;;4889038;29;20448;-94
2022/03/18 02:47:26;;;;;;;0.10;0.10;;;;;;;;;;4889105;29;20080;-93
2022/03/18 02:49:52;;;;;;;0.10;0.10;;;;;;;;;;4888206;29;20036;-91
2022/03/18 02:52:19;;;;;;;0.10;0.10;;;;;;;;;;4888660;29;20099;-92
2022/03/18 02:54:45;;;;;;;0.10;0.10;;;;;;;;;;4887730;29;20130;-92
2022/03/18 02:57:11;;;;;;;0.10;0.10;;;;;;;;;;4888222;29;20610;-92
2022/03/18 02:59:37;;;;;;;0.10;0.10;;;;;;;;;;4904024;29;20044;-92
2022/03/18 03:02:03;;;;;;;0.10;0.10;;;;;;;;;;4888522;29;20044;-92
2022/03/18 03:04:29;;;;;;;0.10;0.10;;;;;;;;;;4888408;29;20044;-92
2022/03/18 03:09:40;;;;;;;0.10;0.10;;;;;;;;;;4906077;29;20056;-93
2022/03/18 03:12:06;;;;;;;0.10;0.10;;;;;;;;;;4888884;29;20131;-92
2022/03/18 03:14:32;;;;;;;0.10;0.10;;;;;;;;;;4889716;29;20055;-92
2022/03/18 03:16:58;;;;;;;0.10;0.10;;;;;;;;;;4905322;29;20508;-92
2022/03/18 03:19:24;;;;;;;0.10;0.10;;;;;;;;;;4906245;29;20048;-93
2022/03/18 03:21:50;;;;;;;0.10;0.10;;;;;;;;;;4905885;29;20044;-93
2022/03/18 03:24:16;;;;;;;0.10;0.10;;;;;;;;;;4889562;29;20051;-93
2022/03/18 03:26:42;;;;;;;0.10;0.10;;;;;;;;;;4888410;29;20055;-92
2022/03/18 03:29:08;;;;;;;0.10;0.10;;;;;;;;;;4903903;29;20044;-92
2022/03/18 03:31:34;;;;;;;0.10;0.10;;;;;;;;;;4903917;29;20481;-92
2022/03/18 03:34:00;;;;;;;0.10;0.10;;;;;;;;;;4888368;29;20040;-93
2022/03/18 03:36:27;;;;;;;0.10;0.10;;;;;;;;;;4903831;29;20131;-93
2022/03/18 03:38:53;;;;;;;0.10;0.10;;;;;;;;;;4918721;29;20444;-92
2022/03/18 03:41:21;;;;;;;0.10;0.10;;;;;;;;;;4903369;29;20044;-92
2022/03/18 03:43:47;;;;;;;0.10;0.10;;;;;;;;;;4888418;29;20502;-94
2022/03/18 03:46:13;;;;;;;0.10;0.10;;;;;;;;;;4888138;29;20037;-93
2022/03/18 03:48:39;;;;;;;0.10;0.10;;;;;;;;;;4903672;29;20044;-93
2022/03/18 03:51:05;;;;;;;0.28;0.28;;;;;;;;;;4887764;29;20098;-92
2022/03/18 03:53:31;;;;;;;0.20;0.20;;;;;;;;;;4887224;29;20044;-93
2022/03/18 03:55:58;;;;;;;0.10;0.10;;;;;;;;;;4887931;29;20616;-93
2022/03/18 03:58:24;;;;;;;0.10;0.10;;;;;;;;;;4887644;29;20044;-92
2022/03/18 04:00:50;;;;;;;0.10;0.10;;;;;;;;;;4887376;29;20047;-93
2022/03/18 04:03:16;;;;;;;0.10;0.10;;;;;;;;;;4887698;29;20060;-94
2022/03/18 04:05:42;;;;;;;0.10;0.10;;;;;;;;;;4887466;29;20044;-93
2022/03/18 04:08:08;;;;;;;0.10;0.10;;;;;;;;;;4887521;29;20068;-93
2022/03/18 04:10:34;;;;;;;0.10;0.10;;;;;;;;;;4903321;29;20044;-93
2022/03/18 04:13:00;;;;;;;0.10;0.10;;;;;;;;;;4887399;29;20043;-93
2022/03/18 04:15:26;;;;;;;0.10;0.10;;;;;;;;;;4887660;29;20040;-93
2022/03/18 04:17:52;;;;;;;0.10;0.10;;;;;;;;;;4887524;29;20040;-93
2022/03/18 04:20:22;;;;;;;0.10;0.10;;;;;;;;;;4886474;29;20135;-94
2022/03/18 04:22:49;;;;;;;0.10;0.10;;;;;;;;;;4887637;29;20047;-92
2022/03/18 04:25:15;;;;;;;0.10;0.10;;;;;;;;;;4887235;29;20480;-93
2022/03/18 04:27:41;;;;;;;0.10;0.10;;;;;;;;;;4887033;29;20044;-92
2022/03/18 04:30:08;;;;;;;0.10;0.10;;;;;;;;;;4887009;29;20131;-93
2022/03/18 04:32:34;;;;;;;0.10;0.10;;;;;;;;;;4902562;29;20048;-92
2022/03/18 04:35:00;;;;;;;0.10;0.10;;;;;;;;;;4902446;29;20528;-91
2022/03/18 04:37:26;;;;;;;0.10;0.10;;;;;;;;;;4886717;29;20052;-91
2022/03/18 04:39:52;;;;;;;0.10;0.10;;;;;;;;;;4901937;29;20059;-91
2022/03/18 04:42:18;;;;;;;0.10;0.10;;;;;;;;;;4901968;29;20131;-92
2022/03/18 04:44:44;;;;;;;0.10;0.10;;;;;;;;;;4902327;29;20048;-92
2022/03/18 04:47:11;;;;;;;0.10;0.10;;;;;;;;;;4886327;29;20055;-92
2022/03/18 04:49:37;;;;;;;0.10;0.10;;;;;;;;;;4885990;29;20127;-91
2022/03/18 04:52:03;;;;;;;0.10;0.10;;;;;;;;;;4886201;29;20047;-90
2022/03/18 04:54:29;;;;;;;0.10;0.10;;;;;;;;;;4901632;29;20465;-91
2022/03/18 04:59:40;;;;;;;0.20;0.20;;;;;;;;;;4904523;29;20036;-92
2022/03/18 05:02:06;;;;;;;0.10;0.10;;;;;;;;;;4902005;29;20083;-91
2022/03/18 05:04:32;;;;;;;0.10;0.10;;;;;;;;;;4886490;29;20063;-92
2022/03/18 05:06:58;;;;;;;0.10;0.10;;;;;;;;;;4901130;29;20048;-92
2022/03/18 05:09:25;;;;;;;0.10;0.10;;;;;;;;;;4889509;29;20047;-93
2022/03/18 05:11:51;;;;;;;0.10;0.10;;;;;;;;;;4889787;29;20483;-92
2022/03/18 05:14:17;;;;;;;0.10;0.10;;;;;;;;;;4889525;29;20039;-92
2022/03/18 05:16:43;;;;;;;0.77;0.30;;;;;;;;;;4889096;29;20495;-92
2022/03/18 05:19:10;;;;;;;0.10;0.10;;;;;;;;;;4889223;29;20055;-93
2022/03/18 05:21:36;;;;;;;0.10;0.10;;;;;;;;;;4888882;29;20138;-91
2022/03/18 05:24:03;;;;;;;0.10;0.10;;;;;;;;;;4905029;29;20086;-92
2022/03/18 05:26:29;;;;;;;0.10;0.10;;;;;;;;;;4889626;29;20043;-92
2022/03/18 05:28:55;;;;;;;0.10;0.10;;;;;;;;;;4889107;29;20179;-92
2022/03/18 05:31:21;;;;;;;0.10;0.10;;;;;;;;;;4889423;29;20043;-92
2022/03/18 05:33:47;;;;;;;0.10;0.10;;;;;;;;;;4888977;29;20054;-92
2022/03/18 05:36:14;;;;;;;0.10;0.10;;;;;;;;;;4888894;29;20048;-92
2022/03/18 05:38:40;;;;;;;0.25;0.13;;;;;;;;;;4904540;29;20047;-92
2022/03/18 05:41:07;;;;;;;0.10;0.10;;;;;;;;;;4888970;29;20047;-92
2022/03/18 05:43:33;;;;;;;0.10;0.10;;;;;;;;;;4889741;29;20047;-93
2022/03/18 05:45:59;;;;;;;0.10;0.10;;;;;;;;;;4904408;29;20043;-92
2022/03/18 05:48:25;;;;;;;0.10;0.10;;;;;;;;;;4904045;29;20130;-92
2022/03/18 05:50:51;;;;;;;0.10;0.10;;;;;;;;;;4903863;29;20126;-92
2022/03/18 05:53:19;;;;;;;0.10;0.10;;;;;;;;;;4888705;29;20036;-92
2022/03/18 05:58:30;;;;;;;0.10;0.10;;;;;;;;;;4919948;29;20052;-91
2022/03/18 06:00:56;;;;;;;0.10;0.10;;;;;;;;;;4903936;29;20200;-89
2022/03/18 06:03:22;;;;;;;0.10;0.10;;;;;;;;;;4888437;29;20047;-92
2022/03/18 06:05:48;;;;;;;0.10;0.10;;;;;;;;;;4903992;29;20533;-92
2022/03/18 06:13:43;;;;;;;0.10;0.10;;;;;;;;;;4906841;29;20047;-92
2022/03/18 06:16:10;;;;;;;0.10;0.10;;;;;;;;;;4893877;29;20146;-93
2022/03/18 06:18:36;;;;;;;0.10;0.10;;;;;;;;;;4910619;29;20106;-93
2022/03/18 06:21:05;;;;;;;0.10;0.10;;;;;;;;;;4895065;29;20040;-94
2022/03/18 06:23:31;;;;;;;0.10;0.10;;;;;;;;;;4895353;29;20045;-94
2022/03/18 06:25:57;;;;;;;0.10;0.10;;;;;;;;;;4910361;29;20130;-93
2022/03/18 06:28:23;;;;;;;0.10;0.10;;;;;;;;;;4910939;29;20040;-93
2022/03/18 06:30:49;;;;;;;0.10;0.10;;;;;;;;;;4894960;29;20094;-95
2022/03/18 06:33:53;;;;;;;0.10;0.10;;;;;;;;;;4902765;29;20130;-96
2022/03/18 06:36:39;;;;;;;0.10;0.10;;;;;;;;;;4921957;29;20047;-95
2022/03/18 06:39:05;;;;;;;0.10;0.10;;;;;;;;;;4914205;29;20044;-96
2022/03/18 06:41:32;;;;;;;0.10;0.10;;;;;;;;;;4913566;29;20055;-96
2022/03/18 06:44:00;;;;;;;0.10;0.10;;;;;;;;;;4896380;29;20047;-96
2022/03/18 06:46:26;;;;;;;0.10;0.10;;;;;;;;;;4899232;29;20054;-95
2022/03/18 06:48:55;;;;;;;0.10;0.10;;;;;;;;;;4912953;29;20047;-95
2022/03/18 06:51:21;;;;;;;0.00;0.00;;;;;;;;;;4897705;29;20059;-96
2022/03/18 06:53:47;;;;;;;0.10;0.10;;;;;;;;;;4913830;29;20038;-95
2022/03/18 06:56:13;;;;;;;0.10;0.10;;;;;;;;;;4895601;29;20042;-95
2022/03/18 06:58:42;;;;;;;0.00;0.00;;;;;;;;;;4896424;29;20050;-94
2022/03/18 07:01:08;;;;;;;0.00;0.00;;;;;;;;;;4894945;29;20058;-96
2022/03/18 07:03:34;;;;;;;0.00;0.00;;;;;;;;;;4894926;29;20072;-94
2022/03/18 07:06:00;;;;;;;0.00;0.00;;;;;;;;;;4894901;29;20134;-96
2022/03/18 07:08:26;;;;;;;0.00;0.00;;;;;;;;;;4895897;29;20094;-95
2022/03/18 07:10:52;;;;;;;0.00;0.00;;;;;;;;;;4894702;29;20484;-95
2022/03/18 07:13:18;;;;;;;0.10;0.10;;;;;;;;;;4894637;29;20583;-91
2022/03/18 07:15:44;;;;;;;0.00;0.00;;;;;;;;;;4924600;29;20070;-92
2022/03/18 07:18:10;;;;;;;0.10;0.10;;;;;;;;;;4928463;28;20047;-92
2022/03/18 07:20:36;;;;;;;0.10;0.10;;;;;;;;;;4942803;28;20047;-95
2022/03/18 07:23:03;;;;;;;0.00;0.00;;;;;;;;;;4934922;28;20498;-90
2022/03/18 07:25:29;;;;;;;0.10;0.10;;;;;;;;;;4963245;28;20090;-90
2022/03/18 07:27:55;;;;;;;0.10;0.10;;;;;;;;;;4943810;28;20047;-89
2022/03/18 07:30:21;;;;;;;0.10;0.10;;;;;;;;;;4943009;28;20446;-91
2022/03/18 07:32:47;;;;;;;0.20;0.20;;;;;;;;;;4925465;29;20090;-90
2022/03/18 07:35:14;;;;;;;0.10;0.10;;;;;;;;;;4924728;29;20086;-90
2022/03/18 07:37:40;;;;;;;0.10;0.10;;;;;;;;;;4924995;29;20603;-91
2022/03/18 07:40:08;;;;;;;0.10;0.10;;;;;;;;;;4924161;29;20406;-89
2022/03/18 07:43:01;;;;;;;0.10;0.10;;;;;;;;;;4924346;29;20039;-89
2022/03/18 07:45:27;;;;;;;0.10;0.10;;;;;;;;;;4937001;29;20578;-90
2022/03/18 07:47:54;;;;;;;0.10;0.10;;;;;;;;;;4939248;29;20062;-90
2022/03/18 07:50:24;;;;;;;0.20;0.20;;;;;;;;;;4924072;29;20051;-91
2022/03/18 07:52:58;;;;;;;0.10;0.10;;;;;;;;;;4923100;29;20051;-93
2022/03/18 07:55:27;;;;;;;0.10;0.10;;;;;;;;;;4924419;29;20086;-90
2022/03/18 07:57:56;;;;;;;0.10;0.10;;;;;;;;;;4923545;29;20058;-92
2022/03/18 08:00:22;;;;;;;0.10;0.10;;;;;;;;;;4923767;29;20098;-91
2022/03/18 08:02:54;;;;;;;0.32;0.32;;;;;;;;;;4924871;29;20126;-91
2022/03/18 08:05:20;;;;;;;0.10;0.10;;;;;;;;;;4924872;29;20051;-91
2022/03/18 08:07:49;;;;;;;0.10;0.10;;;;;;;;;;4924181;29;20411;-90
2022/03/18 08:10:15;;;;;;;0.25;0.25;;;;;;;;;;4925105;29;20134;-91
2022/03/18 08:12:43;;;;;;;0.10;0.10;;;;;;;;;;4924293;29;20408;-91
2022/03/18 08:15:10;;;;;;;0.20;0.20;;;;;;;;;;4924432;29;20133;-90
2022/03/18 08:17:39;;;;;;;0.10;0.10;;;;;;;;;;4924736;29;20058;-91
2022/03/18 08:20:09;;;;;;;0.10;0.10;;;;;;;;;;4924411;29;20503;-91
2022/03/18 08:22:36;;;;;;;3.00;0.20;;;;;;;;;;4924214;29;20085;-91
2022/03/18 08:25:02;;;;;;;0.30;0.20;;;;;;;;;;4924394;29;20065;-91
2022/03/18 08:27:28;;;;;;;0.10;0.10;;;;;;;;;;4923738;29;20491;-91
2022/03/18 08:29:59;;;;;;;0.10;0.10;;;;;;;;;;4923971;29;20076;-91
2022/03/18 08:32:25;;;;;;;0.30;0.30;;;;;;;;;;4923986;29;20043;-91
2022/03/18 08:34:51;;;;;;;0.20;0.20;;;;;;;;;;4923853;29;20045;-91
2022/03/18 08:37:56;;;;;;;0.10;0.10;;;;;;;;;;4923784;28;20126;-91
2022/03/18 08:40:04;;;;;;;0.70;0.13;;;;;;;;;;4939447;29;20043;-91
2022/03/18 08:42:30;;;;;;;0.20;0.20;;;;;;;;;;4923774;29;20051;-91
2022/03/18 08:44:56;;;;;;;0.10;0.10;;;;;;;;;;4922700;29;20055;-91
2022/03/18 08:47:23;;;;;;;0.20;0.20;;;;;;;;;;4922822;29;20487;-91
2022/03/18 08:49:49;;;;;;;0.10;0.10;;;;;;;;;;4923378;29;20039;-91
2022/03/18 08:52:16;;;;;;;0.10;0.10;;;;;;;;;;4923512;29;20070;-91
2022/03/18 08:54:42;;;;;;;0.10;0.10;;;;;;;;;;4923204;28;20302;-89
2022/03/18 08:57:08;;;;;;;0.25;0.25;;;;;;;;;;4923633;29;20047;-91
2022/03/18 08:59:34;;;;;;;0.10;0.10;;;;;;;;;;4923190;29;20043;-92
2022/03/18 09:02:00;;;;;;;0.10;0.10;;;;;;;;;;4923525;29;20057;-91
2022/03/18 09:04:26;;;;;;;0.10;0.10;;;;;;;;;;4924130;29;20472;-91
2022/03/18 09:06:52;;;;;;;0.10;0.10;;;;;;;;;;4924040;29;20102;-92
2022/03/18 09:09:18;;;;;;;1.45;0.17;;;;;;;;;;4924297;29;20051;-91
2022/03/18 09:11:44;;;;;;;0.10;0.10;;;;;;;;;;4923407;29;20090;-90
2022/03/18 09:14:11;;;;;;;0.25;0.25;;;;;;;;;;4923145;29;20047;-91
2022/03/18 09:16:38;;;;;;;0.10;0.10;;;;;;;;;;4922636;29;20047;-91
2022/03/18 09:19:07;;;;;;;0.10;0.10;;;;;;;;;;4922634;29;20047;-90
2022/03/18 09:21:33;;;;;;;0.10;0.10;;;;;;;;;;4922864;29;20050;-91
2022/03/18 09:23:59;;;;;;;0.17;0.17;;;;;;;;;;4938660;29;20082;-90
2022/03/18 09:26:26;;;;;;;0.10;0.10;;;;;;;;;;4922014;29;20050;-90
2022/03/18 09:28:52;;;;;;;0.10;0.10;;;;;;;;;;4922257;29;20398;-91
2022/03/18 09:31:19;;;;;;;0.10;0.10;;;;;;;;;;4922652;29;20039;-91
2022/03/18 09:33:46;;;;;;;0.10;0.10;;;;;;;;;;4922667;29;20039;-91
2022/03/18 09:36:14;;;;;;;0.30;0.30;;;;;;;;;;4922559;29;20094;-91
2022/03/18 09:38:41;;;;;;;0.10;0.10;;;;;;;;;;4922757;29;20047;-91
2022/03/18 09:41:07;;;;;;;0.10;0.10;;;;;;;;;;4922744;29;20047;-91
2022/03/18 09:43:34;;;;;;;0.10;0.10;;;;;;;;;;4922271;29;20043;-90
2022/03/18 09:46:00;;;;;;;0.10;0.10;;;;;;;;;;4922163;29;20044;-91
2022/03/18 09:48:26;;;;;;;0.10;0.10;;;;;;;;;;4922485;29;20050;-91
2022/03/18 09:50:51;;;;;;;0.17;0.17;;;;;;;;;;4936976;29;20200;-91
2022/03/18 09:53:17;;;;;;;0.10;0.10;;;;;;;;;;4937610;29;20043;-91
2022/03/18 09:55:43;;;;;;;0.20;0.20;;;;;;;;;;4922214;29;20058;-90
2022/03/18 09:58:11;;;;;;;0.10;0.10;;;;;;;;;;4922447;29;20130;-91
2022/03/18 10:00:37;;;;;;;0.10;0.10;;;;;;;;;;4922262;29;20133;-90
2022/03/18 10:03:13;;;;;;;0.10;0.10;;;;;;;;;;4921867;29;20091;-91
2022/03/18 10:05:58;;;;;;;0.10;0.10;;;;;;;;;;4922153;29;20046;-91
2022/03/18 10:08:25;;;;;;;0.50;0.50;;;;;;;;;;4921800;29;20057;-91
2022/03/18 10:10:51;;;;;;;0.20;0.20;;;;;;;;;;4922050;29;20039;-90
2022/03/18 10:13:18;;;;;;;0.10;0.10;;;;;;;;;;4922140;29;20054;-90
2022/03/18 10:15:44;;;;;;;0.20;0.20;;;;;;;;;;4921686;29;20039;-90
2022/03/18 10:18:14;;;;;;;0.28;0.28;;;;;;;;;;4921973;29;20418;-90
2022/03/18 10:20:41;;;;;;;0.32;0.32;;;;;;;;;;4922062;29;20423;-90
2022/03/18 10:23:16;;;;;;;0.20;0.20;;;;;;;;;;4921810;29;20098;-91
2022/03/18 10:25:42;;;;;;;0.10;0.10;;;;;;;;;;4937489;29;20130;-90
2022/03/18 10:28:09;;;;;;;0.20;0.20;;;;;;;;;;4937453;29;20514;-91
2022/03/18 10:30:35;;;;;;;0.10;0.10;;;;;;;;;;4922146;29;20031;-90
2022/03/18 10:33:01;;;;;;;0.10;0.10;;;;;;;;;;4922021;29;20043;-90
2022/03/18 10:38:15;;;;;;;0.17;0.17;;;;;;;;;;4924575;29;20151;-90
2022/03/18 10:40:41;;;;;;;0.10;0.10;;;;;;;;;;4921719;29;20047;-90
2022/03/18 10:43:08;;;;;;;0.10;0.10;;;;;;;;;;4937883;29;20398;-91
2022/03/18 10:45:34;;;;;;;0.20;0.20;;;;;;;;;;4937452;29;20043;-90
2022/03/18 10:48:13;;;;;;;0.10;0.10;;;;;;;;;;4921531;29;20047;-90
2022/03/18 10:50:40;;;;;;;0.10;0.10;;;;;;;;;;4921816;29;20043;-90
2022/03/18 10:53:06;;;;;;;0.10;0.10;;;;;;;;;;4921075;29;20439;-90
2022/03/18 10:55:35;;;;;;;0.10;0.10;;;;;;;;;;4921569;29;20427;-90
2022/03/18 10:58:03;;;;;;;0.20;0.20;;;;;;;;;;4921659;29;20043;-90
2022/03/18 11:00:30;;;;;;;0.10;0.10;;;;;;;;;;4921637;28;20522;-90
2022/03/18 11:02:58;;;;;;;0.10;0.10;;;;;;;;;;4924940;29;20062;-90
2022/03/18 11:05:25;;;;;;;0.10;0.10;;;;;;;;;;4924793;29;20043;-90
2022/03/18 11:07:51;;;;;;;0.10;0.10;;;;;;;;;;4924937;29;20087;-90
2022/03/18 11:13:05;;;;;;;0.10;0.10;;;;;;;;;;4940525;29;20058;-90
2022/03/18 11:15:31;;;;;;;0.10;0.10;;;;;;;;;;4924857;29;20583;-90
2022/03/18 11:17:57;;;;;;;0.10;0.10;;;;;;;;;;4924479;29;20058;-90
2022/03/18 11:20:27;;;;;;;0.10;0.10;;;;;;;;;;4924658;29;20130;-90
2022/03/18 11:22:53;;;;;;;0.20;0.20;;;;;;;;;;4924740;29;20042;-88
2022/03/18 11:25:19;;;;;;;0.20;0.20;;;;;;;;;;4924738;29;20047;-90
2022/03/18 11:27:45;;;;;;;0.90;0.43;;;;;;;;;;4940614;29;20043;-90
2022/03/18 11:30:18;;;;;;;0.10;0.10;;;;;;;;;;4924858;29;20086;-89
2022/03/18 11:32:45;;;;;;;0.95;0.52;;;;;;;;;;4924680;29;20039;-90
2022/03/18 11:35:11;;;;;;;0.20;0.20;;;;;;;;;;4940408;29;20049;-90
2022/03/18 11:37:38;;;;;;;0.10;0.10;;;;;;;;;;4939953;29;20130;-90
2022/03/18 11:40:27;;;;;;;0.13;0.13;;;;;;;;;;4924901;29;20085;-90
2022/03/18 11:42:54;;;;;;;0.10;0.10;;;;;;;;;;4940304;29;20483;-90
2022/03/18 11:45:33;;;;;;;0.10;0.10;;;;;;;;;;4924177;29;20384;-90
2022/03/18 11:47:59;;;;;;;0.10;0.10;;;;;;;;;;4924497;29;20074;-90
2022/03/18 11:50:38;;;;;;;0.10;0.10;;;;;;;;;;4924321;29;20035;-90
2022/03/18 11:53:04;;;;;;;0.20;0.20;;;;;;;;;;4924430;29;20094;-90
2022/03/18 11:55:30;;;;;;;0.10;0.10;;;;;;;;;;4924063;29;20054;-90
2022/03/18 11:57:56;;;;;;;0.10;0.10;;;;;;;;;;4923948;29;20039;-90
2022/03/18 12:00:42;;;;;;;0.10;0.10;;;;;;;;;;4940150;29;20043;-90
2022/03/18 12:03:21;;;;;;;0.10;0.10;;;;;;;;;;4904296;29;20134;-90
2022/03/18 12:06:02;;;;;;;0.20;0.20;;;;;;;;;;4904144;29;20052;-89
2022/03/18 12:08:48;;;;;;;0.10;0.10;;;;;;;;;;4903854;29;20356;-90
2022/03/18 12:11:29;;;;;;;0.10;0.10;;;;;;;;;;4903990;29;20126;-90
2022/03/18 12:13:55;;;;;;;0.10;0.10;;;;;;;;;;4903503;29;20040;-90
2022/03/18 12:16:22;;;;;;;0.10;0.10;;;;;;;;;;4904036;29;20063;-89
2022/03/18 12:18:48;;;;;;;0.20;0.20;;;;;;;;;;4903985;29;20518;-90
2022/03/18 12:21:14;;;;;;;0.20;0.20;;;;;;;;;;4935650;29;20127;-90
2022/03/18 12:23:40;;;;;;;0.10;0.10;;;;;;;;;;4935376;29;20059;-89
2022/03/18 12:26:06;;;;;;;0.10;0.10;;;;;;;;;;4903955;29;20043;-90
2022/03/18 12:28:45;;;;;;;0.20;0.20;;;;;;;;;;4903843;29;20048;-90
2022/03/18 12:31:15;;;;;;;0.10;0.10;;;;;;;;;;4903333;29;20405;-90
2022/03/18 12:33:40;;;;;;;0.20;0.20;;;;;;;;;;4895059;29;20102;-89
2022/03/18 12:36:06;;;;;;;0.10;0.10;;;;;;;;;;4923342;29;20067;-90
2022/03/18 12:38:32;;;;;;;0.20;0.20;;;;;;;;;;4923586;29;20040;-90
2022/03/18 12:40:59;;;;;;;0.10;0.10;;;;;;;;;;4938513;29;20043;-90
2022/03/18 12:43:26;;;;;;;0.20;0.20;;;;;;;;;;4923655;29;20439;-90
2022/03/18 12:45:52;;;;;;;0.10;0.10;;;;;;;;;;4939349;29;20461;-90
2022/03/18 12:48:19;;;;;;;0.10;0.10;;;;;;;;;;4923057;29;20166;-90
2022/03/18 12:50:54;;;;;;;0.13;0.13;;;;;;;;;;4923170;29;20050;-90
2022/03/18 12:53:24;;;;;;;0.10;0.10;;;;;;;;;;4923522;29;20043;-90
2022/03/18 12:55:51;;;;;;;13.73;0.52;;;;;;;;;;4923320;29;20126;-90
2022/03/18 12:58:17;;;;;;;0.13;0.13;;;;;;;;;;4938456;29;20047;-90
2022/03/18 13:00:45;;;;;;;0.10;0.10;;;;;;;;;;4923147;29;20079;-90
2022/03/18 13:03:23;;;;;;;0.10;0.10;;;;;;;;;;4922735;29;20043;-89
2022/03/18 13:05:50;;;;;;;0.10;0.10;;;;;;;;;;4922915;29;20102;-89
2022/03/18 13:08:16;;;;;;;0.10;0.10;;;;;;;;;;4922883;29;20051;-90
2022/03/18 13:10:42;;;;;;;0.20;0.20;;;;;;;;;;4922550;29;20074;-89
2022/03/18 13:13:10;;;;;;;0.10;0.10;;;;;;;;;;4938853;29;20039;-89
2022/03/18 13:15:36;;;;;;;0.10;0.10;;;;;;;;;;4922684;29;20047;-89
2022/03/18 13:18:09;;;;;;;0.10;0.10;;;;;;;;;;4938285;29;20085;-89
2022/03/18 13:20:35;;;;;;;0.32;0.20;;;;;;;;;;4922557;29;20126;-89
2022/03/18 13:23:01;;;;;;;0.20;0.20;;;;;;;;;;4922219;29;20074;-89
2022/03/18 13:25:28;;;;;;;0.10;0.10;;;;;;;;;;4922578;29;20043;-89
2022/03/18 13:27:54;;;;;;;0.10;0.10;;;;;;;;;;4922721;29;20105;-89
2022/03/18 13:33:09;;;;;;;0.10;0.10;;;;;;;;;;4925092;29;20076;-88
2022/03/18 13:35:43;;;;;;;0.10;0.10;;;;;;;;;;4938089;29;20043;-89
2022/03/18 13:38:14;;;;;;;0.10;0.10;;;;;;;;;;4922190;29;20074;-89
2022/03/18 13:40:41;;;;;;;0.10;0.10;;;;;;;;;;4922383;29;20055;-89
2022/03/18 13:43:08;;;;;;;0.10;0.10;;;;;;;;;;4921656;29;20043;-89
2022/03/18 13:45:35;;;;;;;0.10;0.10;;;;;;;;;;4922631;29;20050;-89
2022/03/18 13:48:01;;;;;;;0.10;0.10;;;;;;;;;;4922421;29;20082;-89
2022/03/18 13:50:42;;;;;;;0.10;0.10;;;;;;;;;;4922278;29;20066;-89
2022/03/18 13:53:18;;;;;;;0.10;0.10;;;;;;;;;;4922692;29;20043;-90
2022/03/18 13:55:44;;;;;;;0.10;0.10;;;;;;;;;;4938037;29;20035;-90
2022/03/18 13:58:10;;;;;;;0.10;0.10;;;;;;;;;;4922814;29;20043;-90
2022/03/18 14:00:36;;;;;;;0.20;0.20;;;;;;;;;;4922237;29;20551;-90
2022/03/18 14:03:03;;;;;;;0.20;0.20;;;;;;;;;;4922187;29;20549;-90
2022/03/18 14:05:29;;;;;;;0.30;0.30;;;;;;;;;;4922335;29;20384;-90
2022/03/18 14:07:56;;;;;;;0.40;0.40;;;;;;;;;;4922516;29;20047;-89
2022/03/18 14:10:23;;;;;;;0.10;0.10;;;;;;;;;;4937881;29;20047;-89
2022/03/18 14:13:00;;;;;;;0.22;0.17;;;;;;;;;;4921858;29;20043;-89
2022/03/18 14:15:30;;;;;;;0.15;0.15;;;;;;;;;;4922403;29;20487;-90
2022/03/18 14:18:18;;;;;;;0.13;0.13;;;;;;;;;;4922022;29;20495;-89
2022/03/18 14:20:53;;;;;;;0.10;0.10;;;;;;;;;;4922597;29;20443;-90
2022/03/18 14:23:20;;;;;;;0.10;0.10;;;;;;;;;;4922036;29;20122;-90
2022/03/18 14:25:46;;;;;;;0.20;0.20;;;;;;;;;;4921958;29;20107;-90
2022/03/18 14:28:19;;;;;;;0.10;0.10;;;;;;;;;;4921776;29;20051;-90
2022/03/18 14:30:46;;;;;;;0.10;0.10;;;;;;;;;;4921589;29;20102;-90
2022/03/18 14:33:12;;;;;;;0.32;0.32;;;;;;;;;;4922338;29;20087;-90
2022/03/18 14:35:38;;;;;;;0.20;0.20;;;;;;;;;;4922080;29;20488;-90
2022/03/18 14:38:04;;;;;;;0.10;0.10;;;;;;;;;;4925146;29;20082;-90
2022/03/18 14:40:30;;;;;;;0.10;0.10;;;;;;;;;;4925685;29;20051;-90
2022/03/18 14:42:56;;;;;;;0.10;0.10;;;;;;;;;;4925795;29;20050;-89
2022/03/18 14:45:22;;;;;;;0.10;0.10;;;;;;;;;;4924833;29;20074;-90
2022/03/18 14:47:48;;;;;;;0.10;0.10;;;;;;;;;;4925352;29;20074;-89
2022/03/18 14:50:14;;;;;;;0.10;0.10;;;;;;;;;;4925702;29;20043;-90
2022/03/18 14:52:40;;;;;;;0.10;0.10;;;;;;;;;;4925558;29;20043;-90
2022/03/18 14:57:51;;;;;;;0.10;0.10;;;;;;;;;;4927460;29;20046;-89
2022/03/18 15:00:17;;;;;;;0.10;0.10;;;;;;;;;;4941283;29;20093;-90
2022/03/18 15:02:43;;;;;;;0.10;0.10;;;;;;;;;;4925589;29;20050;-90
2022/03/18 15:05:11;;;;;;;0.10;0.10;;;;;;;;;;4925232;29;20055;-90
2022/03/18 15:07:38;;;;;;;0.80;0.35;;;;;;;;;;4924963;29;20059;-90
2022/03/18 15:10:04;;;;;;;0.10;0.10;;;;;;;;;;4925522;29;20042;-90
2022/03/18 15:12:30;;;;;;;0.10;0.10;;;;;;;;;;4925514;29;20047;-90
2022/03/18 15:14:56;;;;;;;0.10;0.10;;;;;;;;;;4926215;29;20043;-90